createdAt,value
2023-03-03T00:01:07.901Z,42.33
2023-03-03T00:03:57.726Z,43.67
2023-03-03T00:06:46.531Z,37.75
2023-03-03T00:09:34.952Z,39.50
2023-03-03T00:12:26.285Z,47.47
2023-03-03T00:15:20.036Z,46.05
2023-03-03T00:18:19.930Z,37.95
2023-03-03T00:21:29.197Z,33.30
2023-03-03T00:24:22.119Z,35.15
2023-03-03T00:27:21.302Z,33.20
2023-03-03T00:30:21.105Z,42.33
2023-03-03T00:33:23.925Z,46.53
2023-03-03T00:36:32.810Z,43.47
2023-03-03T00:39:30.315Z,36.72
2023-03-03T00:42:20.270Z,37.53
2023-03-03T00:45:38.259Z,37.67
2023-03-03T00:48:28.899Z,41.45
2023-03-03T00:51:30.409Z,43.50
2023-03-03T00:54:18.851Z,38.40
2023-03-03T00:57:07.548Z,42.22
2023-03-03T00:59:55.984Z,42.40
2023-03-03T01:02:46.550Z,47.35
2023-03-03T01:05:36.326Z,45.07
2023-03-03T01:08:27.058Z,44.72
2023-03-03T01:11:22.205Z,42.47
2023-03-03T01:14:10.762Z,41.55
2023-03-03T01:16:59.745Z,36.38
2023-03-03T01:19:48.309Z,42.20
2023-03-03T01:22:36.876Z,47.40
2023-03-03T01:25:26.736Z,50.28
2023-03-03T01:28:15.301Z,36.23
2023-03-03T01:31:04.288Z,41.65
2023-03-03T01:33:52.842Z,45.00
2023-03-03T01:36:41.331Z,51.10
2023-03-03T01:39:29.887Z,49.33
2023-03-03T01:42:20.009Z,40.15
2023-03-03T01:45:17.557Z,46.38
2023-03-03T01:48:10.946Z,39.92
2023-03-03T01:51:02.982Z,35.20
2023-03-03T01:53:53.292Z,36.47
2023-03-03T01:56:43.693Z,37.83
2023-03-03T01:59:37.197Z,38.65
2023-03-03T02:02:28.550Z,33.78
2023-03-03T02:05:17.786Z,34.83
2023-03-03T02:08:07.688Z,35.03
2023-03-03T02:10:57.542Z,36.75
2023-03-03T02:13:45.995Z,35.40
2023-03-03T02:16:35.860Z,38.20
2023-03-03T02:19:32.848Z,37.00
2023-03-03T02:22:28.155Z,35.83
2023-03-03T02:25:23.575Z,39.40
2023-03-03T02:28:13.731Z,38.88
2023-03-03T02:31:02.754Z,35.40
2023-03-03T02:33:53.134Z,37.40
2023-03-03T02:36:41.966Z,38.95
2023-03-03T02:39:30.756Z,35.08
2023-03-03T02:42:24.664Z,31.27
2023-03-03T02:45:14.490Z,37.03
2023-03-03T02:48:03.019Z,34.83
2023-03-03T02:50:51.458Z,34.22
2023-03-03T02:53:40.009Z,35.08
2023-03-03T02:56:28.703Z,34.22
2023-03-03T02:59:17.999Z,34.78
2023-03-03T03:02:09.015Z,32.10
2023-03-03T03:04:57.519Z,31.80
2023-03-03T03:07:45.962Z,31.30
2023-03-03T03:10:34.411Z,37.40
2023-03-03T03:13:22.780Z,32.35
2023-03-03T03:16:11.288Z,36.97
2023-03-03T03:19:01.562Z,30.97
2023-03-03T03:21:50.045Z,36.03
2023-03-03T03:24:38.708Z,37.33
2023-03-03T03:27:27.437Z,36.97
2023-03-03T03:30:16.176Z,35.50
2023-03-03T03:33:04.719Z,33.40
2023-03-03T03:35:55.730Z,33.08
2023-03-03T03:38:44.440Z,29.92
2023-03-03T03:41:32.855Z,27.33
2023-03-03T03:44:21.565Z,32.30
2023-03-03T03:47:10.070Z,31.20
2023-03-03T03:49:58.542Z,32.40
2023-03-03T03:52:48.505Z,35.65
2023-03-03T03:55:37.058Z,35.65
2023-03-03T03:58:25.560Z,38.08
2023-03-03T04:01:14.020Z,34.88
2023-03-03T04:04:03.000Z,32.30
2023-03-03T04:06:51.463Z,30.55
2023-03-03T04:09:41.370Z,34.15
2023-03-03T04:12:29.930Z,35.70
2023-03-03T04:15:18.444Z,34.78
2023-03-03T04:18:06.932Z,30.95
2023-03-03T04:20:56.227Z,34.33
2023-03-03T04:23:44.741Z,31.30
2023-03-03T04:26:34.580Z,29.08
2023-03-03T04:29:23.123Z,33.65
2023-03-03T04:32:11.618Z,34.35
2023-03-03T04:35:07.574Z,34.35
2023-03-03T04:37:57.078Z,34.45
2023-03-03T04:40:45.619Z,32.27
2023-03-03T04:43:35.477Z,33.72
2023-03-03T04:46:24.012Z,28.92
2023-03-03T04:49:12.705Z,29.23
2023-03-03T04:52:01.532Z,29.42
2023-03-03T04:54:49.993Z,29.90
2023-03-03T04:57:38.457Z,27.37
2023-03-03T05:00:28.335Z,24.13
2023-03-03T05:03:16.795Z,28.90
2023-03-03T05:06:05.668Z,25.75
2023-03-03T05:08:54.639Z,23.98
2023-03-03T05:11:43.181Z,24.65
2023-03-03T05:14:31.770Z,25.83
2023-03-03T05:17:21.629Z,28.95
2023-03-03T05:20:11.973Z,23.50
2023-03-03T05:23:01.611Z,24.23
2023-03-03T05:25:50.989Z,27.58
2023-03-03T05:28:39.477Z,24.47
2023-03-03T05:31:28.284Z,28.38
2023-03-03T05:34:18.162Z,25.98
2023-03-03T05:37:07.397Z,27.02
2023-03-03T05:39:55.906Z,25.67
2023-03-03T05:42:44.800Z,23.73
2023-03-03T05:45:33.454Z,25.13
2023-03-03T05:48:21.967Z,25.08
2023-03-03T05:51:12.047Z,25.70
2023-03-03T05:54:00.495Z,26.50
2023-03-03T05:56:49.089Z,28.15
2023-03-03T05:59:37.523Z,27.13
2023-03-03T06:02:26.035Z,26.95
2023-03-03T06:05:14.511Z,25.10
2023-03-03T06:08:04.738Z,24.48
2023-03-03T06:10:53.208Z,28.30
2023-03-03T06:13:42.737Z,28.92
2023-03-03T06:16:31.217Z,30.30
2023-03-03T06:19:19.837Z,28.35
2023-03-03T06:22:08.868Z,30.88
2023-03-03T06:24:58.719Z,30.98
2023-03-03T06:27:47.271Z,28.30
2023-03-03T06:30:35.749Z,30.42
2023-03-03T06:33:24.312Z,28.98
2023-03-03T06:36:13.053Z,27.35
2023-03-03T06:39:01.688Z,32.55
2023-03-03T06:41:51.492Z,31.65
2023-03-03T06:44:39.987Z,33.60
2023-03-03T06:47:28.441Z,32.42
2023-03-03T06:50:21.384Z,30.27
2023-03-03T06:53:14.392Z,33.60
2023-03-03T06:56:03.630Z,35.33
2023-03-03T06:58:55.680Z,32.90
2023-03-03T07:01:45.613Z,37.20
2023-03-03T07:04:35.379Z,42.25
2023-03-03T07:07:25.795Z,37.33
2023-03-03T07:10:23.251Z,36.15
2023-03-03T07:13:22.906Z,31.00
2023-03-03T07:16:15.305Z,37.08
2023-03-03T07:19:05.378Z,27.65
2023-03-03T07:21:54.020Z,35.13
2023-03-03T07:24:43.372Z,34.90
2023-03-03T07:27:33.027Z,36.30
2023-03-03T07:30:27.935Z,41.13
2023-03-03T07:33:24.974Z,37.00
2023-03-03T07:36:27.582Z,38.15
2023-03-03T07:39:29.087Z,31.27
2023-03-03T07:42:22.548Z,33.22
2023-03-03T07:45:27.436Z,37.97
2023-03-03T07:48:26.065Z,35.57
2023-03-03T07:51:20.324Z,35.47
2023-03-03T07:54:30.821Z,42.55
2023-03-03T07:57:24.832Z,36.00
2023-03-03T08:00:49.054Z,38.25
2023-03-03T08:03:38.982Z,35.80
2023-03-03T08:06:42.942Z,36.42
2023-03-03T08:09:41.031Z,31.65
2023-03-03T08:12:39.999Z,35.17
2023-03-03T08:15:32.619Z,35.80
2023-03-03T08:18:25.293Z,35.75
2023-03-03T08:21:17.513Z,40.40
2023-03-03T08:24:06.747Z,34.08
2023-03-03T08:26:55.303Z,36.45
2023-03-03T08:29:43.801Z,45.58
2023-03-03T08:32:32.448Z,39.13
2023-03-03T08:35:20.991Z,45.88
2023-03-03T08:38:12.308Z,42.70
2023-03-03T08:41:00.767Z,41.92
2023-03-03T08:43:49.249Z,39.78
2023-03-03T08:46:37.811Z,41.33
2023-03-03T08:49:26.320Z,46.47
2023-03-03T08:52:14.800Z,42.35
2023-03-03T08:55:05.244Z,40.13
2023-03-03T08:57:54.412Z,44.23
2023-03-03T09:00:43.738Z,53.47
2023-03-03T09:03:32.431Z,50.03
2023-03-03T09:06:20.934Z,53.97
2023-03-03T09:09:09.403Z,43.05
2023-03-03T09:12:02.873Z,45.38
2023-03-03T09:14:52.615Z,46.15
2023-03-03T09:17:41.403Z,54.08
2023-03-03T09:20:37.300Z,42.88
2023-03-03T09:23:36.946Z,45.65
2023-03-03T09:26:28.630Z,43.70
2023-03-03T09:29:27.617Z,47.00
2023-03-03T09:32:31.447Z,52.83
2023-03-03T09:35:36.747Z,44.80
2023-03-03T09:38:29.632Z,47.80
2023-03-03T09:41:54.653Z,46.20
2023-03-03T09:45:15.253Z,44.73
2023-03-03T09:48:34.075Z,44.00
2023-03-03T09:51:46.027Z,46.50
2023-03-03T09:54:54.238Z,46.93
2023-03-03T09:58:10.155Z,42.80
2023-03-03T10:01:11.169Z,45.13
2023-03-03T10:04:22.674Z,43.35
2023-03-03T10:07:28.921Z,43.90
2023-03-03T10:10:33.289Z,40.20
2023-03-03T10:13:33.290Z,39.85
2023-03-03T10:16:39.313Z,48.13
2023-03-03T10:19:39.493Z,41.75
2023-03-03T10:22:36.670Z,39.05
2023-03-03T10:25:38.116Z,30.35
2023-03-03T10:28:44.795Z,33.55
2023-03-03T10:31:39.049Z,28.83
2023-03-03T10:34:37.778Z,36.35
2023-03-03T10:37:32.115Z,29.33
2023-03-03T10:40:33.129Z,30.35
2023-03-03T10:43:34.959Z,29.13
2023-03-03T10:46:32.118Z,33.17
2023-03-03T10:49:46.925Z,28.73
2023-03-03T10:52:43.822Z,31.77
2023-03-03T10:55:40.315Z,32.60
2023-03-03T10:58:47.525Z,31.27
2023-03-03T11:01:46.278Z,32.27
2023-03-03T11:04:51.335Z,27.52
2023-03-03T11:07:43.882Z,29.02
2023-03-03T11:10:48.275Z,26.50
2023-03-03T11:13:46.759Z,30.27
2023-03-03T11:16:47.278Z,33.95
2023-03-03T11:19:54.057Z,26.17
2023-03-03T11:22:48.830Z,24.80
2023-03-03T11:25:41.642Z,24.73
2023-03-03T11:28:35.960Z,26.50
2023-03-03T11:31:31.405Z,26.35
2023-03-03T11:34:28.968Z,29.40
2023-03-03T11:37:21.542Z,26.50
2023-03-03T11:40:15.883Z,20.23
2023-03-03T11:43:07.872Z,26.63
2023-03-03T11:45:58.068Z,26.10
2023-03-03T11:48:49.215Z,28.50
2023-03-03T11:51:43.505Z,24.08
2023-03-03T11:54:36.730Z,21.35
2023-03-03T11:57:28.993Z,24.75
2023-03-03T12:00:20.743Z,23.35
2023-03-03T12:03:18.607Z,22.40
2023-03-03T12:06:14.190Z,21.65
2023-03-03T12:09:12.861Z,24.20
2023-03-03T12:12:08.318Z,20.38
2023-03-03T12:15:06.940Z,19.83
2023-03-03T12:18:16.288Z,20.90
2023-03-03T12:21:13.294Z,20.63
2023-03-03T12:24:12.048Z,21.55
2023-03-03T12:27:15.677Z,22.40
2023-03-03T12:30:16.020Z,20.50
2023-03-03T12:33:23.575Z,21.67
2023-03-03T12:36:23.676Z,20.25
2023-03-03T12:39:32.695Z,23.80
2023-03-03T12:42:33.548Z,17.10
2023-03-03T12:45:36.781Z,22.42
2023-03-03T12:48:35.742Z,19.17
2023-03-03T12:51:35.060Z,14.45
2023-03-03T12:54:53.655Z,24.25
2023-03-03T12:57:52.120Z,18.77
2023-03-03T13:00:50.988Z,16.98
2023-03-03T13:03:55.493Z,16.75
2023-03-03T13:06:48.853Z,19.02
2023-03-03T13:09:55.248Z,55.97
2023-03-03T13:12:51.787Z,22.92
2023-03-03T13:15:55.148Z,16.52
2023-03-03T13:18:54.842Z,14.63
2023-03-03T13:21:48.705Z,14.88
2023-03-03T13:24:43.221Z,16.92
2023-03-03T13:27:37.169Z,12.93
2023-03-03T13:30:31.778Z,13.18
2023-03-03T13:33:27.264Z,12.23
2023-03-03T13:36:16.844Z,16.40
2023-03-03T13:39:08.640Z,16.63
2023-03-03T13:42:03.471Z,14.87
2023-03-03T13:44:53.682Z,18.90
2023-03-03T13:47:51.863Z,14.95
2023-03-03T13:50:44.023Z,12.85
2023-03-03T13:53:46.508Z,15.65
2023-03-03T13:56:57.572Z,18.30
2023-03-03T13:59:49.075Z,22.17
2023-03-03T14:02:47.012Z,21.52
2023-03-03T14:05:39.184Z,19.30
2023-03-03T14:08:39.785Z,18.90
2023-03-03T14:11:31.354Z,15.32
2023-03-03T14:14:26.265Z,15.40
2023-03-03T14:17:20.306Z,13.45
2023-03-03T14:20:19.839Z,14.90
2023-03-03T14:23:12.269Z,14.18
2023-03-03T14:26:01.373Z,14.15
2023-03-03T14:28:51.663Z,18.73
2023-03-03T14:31:43.317Z,19.17
2023-03-03T14:34:36.591Z,16.17
2023-03-03T14:37:28.196Z,10.98
2023-03-03T14:40:18.961Z,17.30
2023-03-03T14:43:20.812Z,15.65
2023-03-03T14:46:33.603Z,14.60
2023-03-03T14:49:31.830Z,12.85
2023-03-03T14:52:22.213Z,12.90
2023-03-03T14:55:25.826Z,15.00
2023-03-03T14:58:33.914Z,12.10
2023-03-03T15:01:32.035Z,13.48
2023-03-03T15:04:28.083Z,12.90
2023-03-03T15:07:22.942Z,11.70
2023-03-03T15:10:13.560Z,15.27
2023-03-03T15:13:11.806Z,14.23
2023-03-03T15:16:06.872Z,13.15
2023-03-03T15:19:13.719Z,13.20
2023-03-03T15:22:04.915Z,17.52
2023-03-03T15:24:59.410Z,13.40
2023-03-03T15:27:51.283Z,16.70
2023-03-03T15:30:46.836Z,13.68
2023-03-03T15:33:45.591Z,13.35
2023-03-03T15:36:38.798Z,13.20
2023-03-03T15:39:35.833Z,11.95
2023-03-03T15:42:27.503Z,16.02
2023-03-03T15:45:27.704Z,13.25
2023-03-03T15:48:23.216Z,18.85
2023-03-03T15:51:24.110Z,17.38
2023-03-03T15:54:24.834Z,29.67
2023-03-03T15:57:20.348Z,27.92
2023-03-03T16:00:29.701Z,20.67
2023-03-03T16:03:22.870Z,18.95
2023-03-03T16:06:17.733Z,19.42
2023-03-03T16:09:17.753Z,21.73
2023-03-03T16:12:17.219Z,21.27
2023-03-03T16:15:21.015Z,18.65
2023-03-03T16:18:20.147Z,16.63
2023-03-03T16:21:20.921Z,19.08
2023-03-03T16:24:22.097Z,17.70
2023-03-03T16:27:16.991Z,20.38
2023-03-03T16:30:21.087Z,15.52
2023-03-03T16:33:22.603Z,18.27
2023-03-03T16:36:20.920Z,18.97
2023-03-03T16:39:16.235Z,18.45
2023-03-03T16:42:14.659Z,16.90
2023-03-03T16:45:23.477Z,20.25
2023-03-03T16:48:35.796Z,18.75
2023-03-03T16:51:33.288Z,19.63
2023-03-03T16:54:34.638Z,18.35
2023-03-03T16:57:30.128Z,18.77
2023-03-03T17:00:22.553Z,23.00
2023-03-03T17:03:36.260Z,22.08
2023-03-03T17:06:34.614Z,22.15
2023-03-03T17:09:47.372Z,16.80
2023-03-03T17:12:53.877Z,15.52
2023-03-03T17:15:46.622Z,16.58
2023-03-03T17:18:46.196Z,17.83
2023-03-03T17:21:49.025Z,15.13
2023-03-03T17:24:47.364Z,17.42
2023-03-03T17:27:49.596Z,15.73
2023-03-03T17:30:47.079Z,14.23
2023-03-03T17:33:47.739Z,15.65
2023-03-03T17:36:51.010Z,16.65
2023-03-03T17:40:04.934Z,15.60
2023-03-03T17:43:00.956Z,20.30
2023-03-03T17:45:53.102Z,15.32
2023-03-03T17:49:03.801Z,20.48
2023-03-03T17:52:21.297Z,18.83
2023-03-03T17:55:40.806Z,18.75
2023-03-03T17:59:04.346Z,20.37
2023-03-03T18:02:19.038Z,21.55
2023-03-03T18:05:39.835Z,18.40
2023-03-03T18:08:40.177Z,21.13
2023-03-03T18:11:36.278Z,18.90
2023-03-03T18:14:39.873Z,19.27
2023-03-03T18:17:47.588Z,20.13
2023-03-03T18:20:45.699Z,23.80
2023-03-03T18:23:39.824Z,26.08
2023-03-03T18:26:35.409Z,21.38
2023-03-03T18:29:26.323Z,25.83
2023-03-03T18:32:23.585Z,19.83
2023-03-03T18:35:33.505Z,21.55
2023-03-03T18:38:36.019Z,19.05
2023-03-03T18:41:25.274Z,23.48
2023-03-03T18:44:29.778Z,21.23
2023-03-03T18:47:18.530Z,19.13
2023-03-03T18:50:14.906Z,19.08
2023-03-03T18:53:24.709Z,22.27
2023-03-03T18:56:13.583Z,23.90
2023-03-03T18:59:02.651Z,23.10
2023-03-03T19:01:52.885Z,26.92
2023-03-03T19:04:43.165Z,30.60
2023-03-03T19:07:44.310Z,31.98
2023-03-03T19:10:51.473Z,26.58
2023-03-03T19:13:49.665Z,32.10
2023-03-03T19:16:38.459Z,26.52
2023-03-03T19:19:32.698Z,23.05
2023-03-03T19:22:23.769Z,27.77
2023-03-03T19:25:20.513Z,22.65
2023-03-03T19:28:21.721Z,23.10
2023-03-03T19:31:14.664Z,22.90
2023-03-03T19:34:07.442Z,22.98
2023-03-03T19:37:02.473Z,34.25
2023-03-03T19:39:55.251Z,27.77
2023-03-03T19:42:47.938Z,23.42
2023-03-03T19:45:42.612Z,34.70
2023-03-03T19:48:36.338Z,34.10
2023-03-03T19:51:28.431Z,32.95
2023-03-03T19:54:25.663Z,31.10
2023-03-03T19:57:20.272Z,36.15
2023-03-03T20:00:11.145Z,34.53
2023-03-03T20:03:09.327Z,25.83
2023-03-03T20:06:02.576Z,30.60
2023-03-03T20:08:54.959Z,30.88
2023-03-03T20:11:52.445Z,31.75
2023-03-03T20:14:46.076Z,31.42
2023-03-03T20:17:48.618Z,33.92
2023-03-03T20:20:49.781Z,23.15
2023-03-03T20:23:44.324Z,26.88
2023-03-03T20:26:35.671Z,29.23
2023-03-03T20:29:35.559Z,24.35
2023-03-03T20:32:29.835Z,28.95
2023-03-03T20:35:24.930Z,28.17
2023-03-03T20:38:19.122Z,30.45
2023-03-03T20:41:10.377Z,23.80
2023-03-03T20:44:06.259Z,29.75
2023-03-03T20:47:00.175Z,28.95
2023-03-03T20:49:55.428Z,29.20
2023-03-03T20:52:50.804Z,27.00
2023-03-03T20:55:44.551Z,23.98
2023-03-03T20:58:38.741Z,25.95
2023-03-03T21:01:31.887Z,25.13
2023-03-03T21:04:23.886Z,23.02
2023-03-03T21:07:24.680Z,27.27
2023-03-03T21:10:15.377Z,29.33
2023-03-03T21:13:18.916Z,23.63
2023-03-03T21:16:10.976Z,22.53
2023-03-03T21:19:00.290Z,32.00
2023-03-03T21:21:51.038Z,28.73
2023-03-03T21:24:50.678Z,31.27
2023-03-03T21:27:39.455Z,25.90
2023-03-03T21:30:27.945Z,25.30
2023-03-03T21:33:48.811Z,26.10
2023-03-03T21:36:48.130Z,27.73
2023-03-03T21:39:39.975Z,25.67
2023-03-03T21:42:41.989Z,25.35
2023-03-03T21:45:30.472Z,28.05
2023-03-03T21:48:18.949Z,29.77
2023-03-03T21:51:07.451Z,22.85
2023-03-03T21:53:56.192Z,24.63
2023-03-03T21:56:48.045Z,28.90
2023-03-03T21:59:36.867Z,24.75
2023-03-03T22:02:25.344Z,27.83
2023-03-03T22:05:13.874Z,24.33
2023-03-03T22:08:02.414Z,28.58
2023-03-03T22:10:55.937Z,24.17
2023-03-03T22:13:45.897Z,24.58
2023-03-03T22:16:34.435Z,31.20
2023-03-03T22:19:24.165Z,25.95
2023-03-03T22:22:12.643Z,25.10
2023-03-03T22:25:01.084Z,26.27
2023-03-03T22:27:49.512Z,24.30
2023-03-03T22:30:39.428Z,30.90
2023-03-03T22:33:27.944Z,29.85
2023-03-03T22:36:17.113Z,22.10
2023-03-03T22:39:05.731Z,23.60
2023-03-03T22:41:54.140Z,20.27
2023-03-03T22:44:44.794Z,20.90
2023-03-03T22:47:35.651Z,18.93
2023-03-03T22:50:24.164Z,20.38
2023-03-03T22:53:12.755Z,22.75
2023-03-03T22:56:01.301Z,23.75
2023-03-03T22:58:50.460Z,26.08
2023-03-03T23:01:38.971Z,25.40
2023-03-03T23:04:29.406Z,23.20
2023-03-03T23:07:17.938Z,24.63
2023-03-03T23:10:08.149Z,24.02
2023-03-03T23:12:56.585Z,21.70
2023-03-03T23:15:45.247Z,23.77
2023-03-03T23:18:34.078Z,24.10
2023-03-03T23:21:23.921Z,24.90
2023-03-03T23:24:12.375Z,20.98
2023-03-03T23:27:00.972Z,22.63
2023-03-03T23:29:49.432Z,21.92
2023-03-03T23:32:37.991Z,22.03
2023-03-03T23:35:26.595Z,23.20
2023-03-03T23:38:17.796Z,26.83
2023-03-03T23:41:06.505Z,27.15
2023-03-03T23:43:54.987Z,26.13
2023-03-03T23:46:43.490Z,27.55
2023-03-03T23:49:32.007Z,22.63
2023-03-03T23:52:21.483Z,22.80
2023-03-03T23:55:12.079Z,21.95
2023-03-03T23:58:00.542Z,26.90
